sensor_id;sensor_type;location;lat;lon;timestamp;temperature;humidity
55634;DHT22;41504;53.162;6.788;2022-12-18T00:01:26;-1.50;92.00
55634;DHT22;41504;53.162;6.788;2022-12-18T00:03:53;-2.30;91.80
55634;DHT22;41504;53.162;6.788;2022-12-18T00:06:20;-1.90;91.90
55634;DHT22;41504;53.162;6.788;2022-12-18T00:08:47;-2.40;91.90
55634;DHT22;41504;53.162;6.788;2022-12-18T00:11:15;-2.40;91.90
55634;DHT22;41504;53.162;6.788;2022-12-18T00:13:41;-1.40;92.20
55634;DHT22;41504;53.162;6.788;2022-12-18T00:16:11;-2.40;91.90
55634;DHT22;41504;53.162;6.788;2022-12-18T00:18:39;-2.40;91.90
55634;DHT22;41504;53.162;6.788;2022-12-18T00:21:07;-1.20;92.30
55634;DHT22;41504;53.162;6.788;2022-12-18T00:23:34;-2.40;91.90
55634;DHT22;41504;53.162;6.788;2022-12-18T00:26:01;-2.40;91.90
55634;DHT22;41504;53.162;6.788;2022-12-18T00:28:27;-2.10;92.00
55634;DHT22;41504;53.162;6.788;2022-12-18T00:31:04;-2.40;91.90
55634;DHT22;41504;53.162;6.788;2022-12-18T00:33:30;-2.40;91.70
55634;DHT22;41504;53.162;6.788;2022-12-18T00:36:11;-1.40;91.90
55634;DHT22;41504;53.162;6.788;2022-12-18T00:38:37;-2.40;91.80
55634;DHT22;41504;53.162;6.788;2022-12-18T00:41:04;-2.40;91.80
55634;DHT22;41504;53.162;6.788;2022-12-18T00:43:29;-2.50;91.80
55634;DHT22;41504;53.162;6.788;2022-12-18T00:45:55;-2.30;91.90
55634;DHT22;41504;53.162;6.788;2022-12-18T00:48:21;-2.40;91.80
55634;DHT22;41504;53.162;6.788;2022-12-18T00:50:48;-2.50;91.70
55634;DHT22;41504;53.162;6.788;2022-12-18T00:53:15;-2.50;91.70
55634;DHT22;41504;53.162;6.788;2022-12-18T00:55:41;-2.50;91.70
55634;DHT22;41504;53.162;6.788;2022-12-18T00:58:07;-2.60;91.70
55634;DHT22;41504;53.162;6.788;2022-12-18T01:00:33;-2.60;91.60
55634;DHT22;41504;53.162;6.788;2022-12-18T01:02:59;-2.70;91.60
55634;DHT22;41504;53.162;6.788;2022-12-18T01:05:25;-2.10;91.80
55634;DHT22;41504;53.162;6.788;2022-12-18T01:07:51;-2.70;91.60
55634;DHT22;41504;53.162;6.788;2022-12-18T01:10:17;-3.40;91.50
55634;DHT22;41504;53.162;6.788;2022-12-18T01:12:43;-2.80;91.70
55634;DHT22;41504;53.162;6.788;2022-12-18T01:15:10;-2.80;91.80
55634;DHT22;41504;53.162;6.788;2022-12-18T01:17:39;-2.70;91.70
55634;DHT22;41504;53.162;6.788;2022-12-18T01:20:10;-2.70;91.60
55634;DHT22;41504;53.162;6.788;2022-12-18T01:22:39;-2.80;91.70
55634;DHT22;41504;53.162;6.788;2022-12-18T01:25:08;-2.20;91.90
55634;DHT22;41504;53.162;6.788;2022-12-18T01:27:34;-2.80;91.60
55634;DHT22;41504;53.162;6.788;2022-12-18T01:30:00;-2.80;91.90
55634;DHT22;41504;53.162;6.788;2022-12-18T01:32:25;-2.80;91.60
55634;DHT22;41504;53.162;6.788;2022-12-18T01:34:51;-2.90;91.70
55634;DHT22;41504;53.162;6.788;2022-12-18T01:37:17;-2.90;91.70
55634;DHT22;41504;53.162;6.788;2022-12-18T01:39:43;-2.90;91.70
55634;DHT22;41504;53.162;6.788;2022-12-18T01:42:12;-1.90;92.00
55634;DHT22;41504;53.162;6.788;2022-12-18T01:47:35;-2.90;91.90
55634;DHT22;41504;53.162;6.788;2022-12-18T01:50:13;-3.00;91.80
55634;DHT22;41504;53.162;6.788;2022-12-18T01:52:42;-3.00;91.80
55634;DHT22;41504;53.162;6.788;2022-12-18T01:55:10;-3.10;91.80
55634;DHT22;41504;53.162;6.788;2022-12-18T01:57:40;-3.10;91.90
55634;DHT22;41504;53.162;6.788;2022-12-18T02:00:16;-3.10;91.90
55634;DHT22;41504;53.162;6.788;2022-12-18T02:02:43;-3.10;91.90
55634;DHT22;41504;53.162;6.788;2022-12-18T02:05:11;-3.10;91.90
55634;DHT22;41504;53.162;6.788;2022-12-18T02:08:01;-3.10;91.90
55634;DHT22;41504;53.162;6.788;2022-12-18T02:10:45;-3.10;92.10
55634;DHT22;41504;53.162;6.788;2022-12-18T02:18:40;-3.20;92.00
55634;DHT22;41504;53.162;6.788;2022-12-18T02:23:56;-3.20;91.90
55634;DHT22;41504;53.162;6.788;2022-12-18T02:29:22;-3.20;91.90
55634;DHT22;41504;53.162;6.788;2022-12-18T02:31:55;-3.20;92.00
55634;DHT22;41504;53.162;6.788;2022-12-18T02:34:24;-3.20;91.90
55634;DHT22;41504;53.162;6.788;2022-12-18T02:36:53;-3.10;91.90
55634;DHT22;41504;53.162;6.788;2022-12-18T02:39:24;-2.40;92.10
55634;DHT22;41504;53.162;6.788;2022-12-18T02:41:51;-3.20;92.00
55634;DHT22;41504;53.162;6.788;2022-12-18T02:44:17;-3.20;91.90
55634;DHT22;41504;53.162;6.788;2022-12-18T02:46:53;-3.20;91.90
55634;DHT22;41504;53.162;6.788;2022-12-18T02:52:22;-3.20;91.90
55634;DHT22;41504;53.162;6.788;2022-12-18T03:00:16;-3.30;91.80
55634;DHT22;41504;53.162;6.788;2022-12-18T03:02:59;-3.30;91.80
55634;DHT22;41504;53.162;6.788;2022-12-18T03:05:34;-3.30;91.80
55634;DHT22;41504;53.162;6.788;2022-12-18T03:08:18;-3.20;91.90
55634;DHT22;41504;53.162;6.788;2022-12-18T03:10:59;-3.40;91.80
55634;DHT22;41504;53.162;6.788;2022-12-18T03:13:31;-3.40;91.80
55634;DHT22;41504;53.162;6.788;2022-12-18T03:16:00;-3.40;91.80
55634;DHT22;41504;53.162;6.788;2022-12-18T03:18:35;-3.00;91.90
55634;DHT22;41504;53.162;6.788;2022-12-18T03:21:05;-3.40;91.80
55634;DHT22;41504;53.162;6.788;2022-12-18T03:23:39;-3.40;91.80
55634;DHT22;41504;53.162;6.788;2022-12-18T03:26:11;-2.60;92.00
55634;DHT22;41504;53.162;6.788;2022-12-18T03:28:49;-3.50;91.70
55634;DHT22;41504;53.162;6.788;2022-12-18T03:31:16;-3.50;91.70
55634;DHT22;41504;53.162;6.788;2022-12-18T03:33:58;-3.50;91.70
55634;DHT22;41504;53.162;6.788;2022-12-18T03:36:24;-3.50;91.70
55634;DHT22;41504;53.162;6.788;2022-12-18T03:38:53;-3.60;91.70
55634;DHT22;41504;53.162;6.788;2022-12-18T03:41:36;-3.60;91.70
55634;DHT22;41504;53.162;6.788;2022-12-18T03:45:18;-3.50;91.70
55634;DHT22;41504;53.162;6.788;2022-12-18T03:47:26;-3.60;91.70
55634;DHT22;41504;53.162;6.788;2022-12-18T03:50:21;-3.60;91.70
55634;DHT22;41504;53.162;6.788;2022-12-18T03:55:23;-3.60;91.70
55634;DHT22;41504;53.162;6.788;2022-12-18T03:57:57;-3.70;91.60
55634;DHT22;41504;53.162;6.788;2022-12-18T04:00:24;-3.70;91.60
55634;DHT22;41504;53.162;6.788;2022-12-18T04:02:52;-3.70;91.50
55634;DHT22;41504;53.162;6.788;2022-12-18T04:05:19;-3.70;91.50
55634;DHT22;41504;53.162;6.788;2022-12-18T04:07:47;-3.80;91.40
55634;DHT22;41504;53.162;6.788;2022-12-18T04:10:16;-3.80;91.40
55634;DHT22;41504;53.162;6.788;2022-12-18T04:12:42;-3.80;91.40
55634;DHT22;41504;53.162;6.788;2022-12-18T04:15:09;-3.80;91.40
55634;DHT22;41504;53.162;6.788;2022-12-18T04:17:38;-3.80;91.30
55634;DHT22;41504;53.162;6.788;2022-12-18T04:20:05;-3.80;91.30
55634;DHT22;41504;53.162;6.788;2022-12-18T04:22:30;-3.80;91.30
55634;DHT22;41504;53.162;6.788;2022-12-18T04:24:56;-3.80;91.30
55634;DHT22;41504;53.162;6.788;2022-12-18T04:27:22;-3.90;91.20
55634;DHT22;41504;53.162;6.788;2022-12-18T04:29:47;-3.80;91.20
55634;DHT22;41504;53.162;6.788;2022-12-18T04:32:13;-3.90;91.20
55634;DHT22;41504;53.162;6.788;2022-12-18T04:34:39;-3.80;91.20
55634;DHT22;41504;53.162;6.788;2022-12-18T04:37:05;-3.60;91.30
55634;DHT22;41504;53.162;6.788;2022-12-18T04:39:31;-3.90;91.20
55634;DHT22;41504;53.162;6.788;2022-12-18T04:41:59;-3.90;91.20
55634;DHT22;41504;53.162;6.788;2022-12-18T04:44:25;-3.90;91.20
55634;DHT22;41504;53.162;6.788;2022-12-18T04:46:50;-3.80;91.20
55634;DHT22;41504;53.162;6.788;2022-12-18T04:49:16;-3.00;91.40
55634;DHT22;41504;53.162;6.788;2022-12-18T04:51:42;-3.90;91.10
55634;DHT22;41504;53.162;6.788;2022-12-18T04:54:10;-3.90;91.20
55634;DHT22;41504;53.162;6.788;2022-12-18T04:56:36;-3.90;91.10
55634;DHT22;41504;53.162;6.788;2022-12-18T04:59:02;-3.90;91.10
55634;DHT22;41504;53.162;6.788;2022-12-18T05:01:27;-3.60;91.10
55634;DHT22;41504;53.162;6.788;2022-12-18T05:03:53;-4.00;91.10
55634;DHT22;41504;53.162;6.788;2022-12-18T05:06:19;-4.00;91.10
55634;DHT22;41504;53.162;6.788;2022-12-18T05:08:45;-4.00;91.00
55634;DHT22;41504;53.162;6.788;2022-12-18T05:11:13;-4.00;91.00
55634;DHT22;41504;53.162;6.788;2022-12-18T05:13:43;-4.10;91.00
55634;DHT22;41504;53.162;6.788;2022-12-18T05:16:10;-4.10;91.00
55634;DHT22;41504;53.162;6.788;2022-12-18T05:18:36;-4.10;91.20
55634;DHT22;41504;53.162;6.788;2022-12-18T05:21:02;-4.10;90.90
55634;DHT22;41504;53.162;6.788;2022-12-18T05:23:29;-4.20;90.90
55634;DHT22;41504;53.162;6.788;2022-12-18T05:26:03;-4.20;90.90
55634;DHT22;41504;53.162;6.788;2022-12-18T05:28:31;-4.20;90.80
55634;DHT22;41504;53.162;6.788;2022-12-18T05:31:02;-4.20;90.80
55634;DHT22;41504;53.162;6.788;2022-12-18T05:33:33;-4.20;90.80
55634;DHT22;41504;53.162;6.788;2022-12-18T05:36:01;-4.20;90.80
55634;DHT22;41504;53.162;6.788;2022-12-18T05:38:27;-4.20;90.80
55634;DHT22;41504;53.162;6.788;2022-12-18T05:40:56;-4.20;90.80
55634;DHT22;41504;53.162;6.788;2022-12-18T05:43:23;-4.20;90.80
55634;DHT22;41504;53.162;6.788;2022-12-18T05:45:49;-4.30;90.70
55634;DHT22;41504;53.162;6.788;2022-12-18T05:48:16;-4.30;90.70
55634;DHT22;41504;53.162;6.788;2022-12-18T05:50:43;-4.30;90.70
55634;DHT22;41504;53.162;6.788;2022-12-18T05:53:11;-4.30;90.70
55634;DHT22;41504;53.162;6.788;2022-12-18T05:55:38;-4.30;90.70
55634;DHT22;41504;53.162;6.788;2022-12-18T05:58:06;-4.30;90.70
55634;DHT22;41504;53.162;6.788;2022-12-18T06:00:44;-4.30;90.60
55634;DHT22;41504;53.162;6.788;2022-12-18T06:03:11;-4.30;90.60
55634;DHT22;41504;53.162;6.788;2022-12-18T06:05:40;-4.30;90.60
55634;DHT22;41504;53.162;6.788;2022-12-18T06:08:06;-3.80;90.70
55634;DHT22;41504;53.162;6.788;2022-12-18T06:10:37;-4.40;90.60
55634;DHT22;41504;53.162;6.788;2022-12-18T06:13:03;-3.60;90.80
55634;DHT22;41504;53.162;6.788;2022-12-18T06:15:29;-4.40;90.50
55634;DHT22;41504;53.162;6.788;2022-12-18T06:17:55;-4.40;90.50
55634;DHT22;41504;53.162;6.788;2022-12-18T06:20:21;-4.40;90.50
55634;DHT22;41504;53.162;6.788;2022-12-18T06:22:47;-4.40;90.50
55634;DHT22;41504;53.162;6.788;2022-12-18T06:25:13;-4.40;90.50
55634;DHT22;41504;53.162;6.788;2022-12-18T06:27:38;-3.10;90.80
55634;DHT22;41504;53.162;6.788;2022-12-18T06:30:05;-4.00;90.50
55634;DHT22;41504;53.162;6.788;2022-12-18T06:32:32;-4.50;90.50
55634;DHT22;41504;53.162;6.788;2022-12-18T06:34:58;-4.50;90.50
55634;DHT22;41504;53.162;6.788;2022-12-18T06:37:23;-4.50;90.50
55634;DHT22;41504;53.162;6.788;2022-12-18T06:39:57;-4.50;90.50
55634;DHT22;41504;53.162;6.788;2022-12-18T06:42:25;-4.30;90.50
55634;DHT22;41504;53.162;6.788;2022-12-18T06:44:50;-4.50;90.40
55634;DHT22;41504;53.162;6.788;2022-12-18T06:47:16;-4.60;90.50
55634;DHT22;41504;53.162;6.788;2022-12-18T06:49:42;-5.20;90.30
55634;DHT22;41504;53.162;6.788;2022-12-18T06:52:08;-4.60;90.50
55634;DHT22;41504;53.162;6.788;2022-12-18T06:54:34;-4.70;90.50
55634;DHT22;41504;53.162;6.788;2022-12-18T06:57:00;-4.70;90.60
55634;DHT22;41504;53.162;6.788;2022-12-18T06:59:25;-4.70;90.60
55634;DHT22;41504;53.162;6.788;2022-12-18T07:01:51;-3.90;90.70
55634;DHT22;41504;53.162;6.788;2022-12-18T07:04:17;-4.70;90.50
55634;DHT22;41504;53.162;6.788;2022-12-18T07:06:45;-4.70;90.80
55634;DHT22;41504;53.162;6.788;2022-12-18T07:09:11;-4.70;90.60
55634;DHT22;41504;53.162;6.788;2022-12-18T07:11:36;-4.70;90.60
55634;DHT22;41504;53.162;6.788;2022-12-18T07:14:02;-4.70;90.60
55634;DHT22;41504;53.162;6.788;2022-12-18T07:16:28;-4.50;90.60
55634;DHT22;41504;53.162;6.788;2022-12-18T07:18:54;-4.70;90.50
55634;DHT22;41504;53.162;6.788;2022-12-18T07:21:22;-4.70;90.50
55634;DHT22;41504;53.162;6.788;2022-12-18T07:23:48;-4.70;90.50
55634;DHT22;41504;53.162;6.788;2022-12-18T07:26:16;-4.70;90.50
55634;DHT22;41504;53.162;6.788;2022-12-18T07:28:42;-4.70;90.40
55634;DHT22;41504;53.162;6.788;2022-12-18T07:31:14;-4.70;90.40
55634;DHT22;41504;53.162;6.788;2022-12-18T07:33:40;-5.40;90.30
55634;DHT22;41504;53.162;6.788;2022-12-18T07:36:07;-4.70;90.40
55634;DHT22;41504;53.162;6.788;2022-12-18T07:38:34;-4.70;90.40
55634;DHT22;41504;53.162;6.788;2022-12-18T07:41:08;-4.70;90.40
55634;DHT22;41504;53.162;6.788;2022-12-18T07:43:38;-4.70;90.30
55634;DHT22;41504;53.162;6.788;2022-12-18T07:46:10;-4.70;90.30
55634;DHT22;41504;53.162;6.788;2022-12-18T07:48:36;-4.70;90.30
55634;DHT22;41504;53.162;6.788;2022-12-18T07:51:05;-4.70;90.30
55634;DHT22;41504;53.162;6.788;2022-12-18T07:53:35;-4.70;90.30
55634;DHT22;41504;53.162;6.788;2022-12-18T07:56:07;-4.70;90.30
55634;DHT22;41504;53.162;6.788;2022-12-18T07:58:34;-4.60;90.30
55634;DHT22;41504;53.162;6.788;2022-12-18T08:01:13;-4.70;90.20
55634;DHT22;41504;53.162;6.788;2022-12-18T08:03:40;-4.60;90.20
55634;DHT22;41504;53.162;6.788;2022-12-18T08:06:21;-4.60;90.20
55634;DHT22;41504;53.162;6.788;2022-12-18T08:08:58;-4.60;90.30
55634;DHT22;41504;53.162;6.788;2022-12-18T08:11:26;-4.80;90.30
55634;DHT22;41504;53.162;6.788;2022-12-18T08:13:52;-3.00;90.40
55634;DHT22;41504;53.162;6.788;2022-12-18T08:16:18;-3.50;90.40
55634;DHT22;41504;53.162;6.788;2022-12-18T08:18:46;-4.50;90.00
55634;DHT22;41504;53.162;6.788;2022-12-18T08:21:17;-4.50;90.00
55634;DHT22;41504;53.162;6.788;2022-12-18T08:23:47;-4.40;90.00
55634;DHT22;41504;53.162;6.788;2022-12-18T08:26:16;-4.40;89.90
55634;DHT22;41504;53.162;6.788;2022-12-18T08:28:42;-4.40;89.60
55634;DHT22;41504;53.162;6.788;2022-12-18T08:31:08;-4.40;90.10
55634;DHT22;41504;53.162;6.788;2022-12-18T08:33:41;-4.20;90.20
55634;DHT22;41504;53.162;6.788;2022-12-18T08:36:08;-4.80;89.90
55634;DHT22;41504;53.162;6.788;2022-12-18T08:38:34;-4.30;89.90
55634;DHT22;41504;53.162;6.788;2022-12-18T08:41:11;-4.30;89.80
55634;DHT22;41504;53.162;6.788;2022-12-18T08:43:38;-4.20;89.80
55634;DHT22;41504;53.162;6.788;2022-12-18T08:46:24;-4.20;89.80
55634;DHT22;41504;53.162;6.788;2022-12-18T08:48:51;-4.20;89.80
55634;DHT22;41504;53.162;6.788;2022-12-18T08:51:17;-4.10;89.70
55634;DHT22;41504;53.162;6.788;2022-12-18T08:53:44;-4.10;89.60
55634;DHT22;41504;53.162;6.788;2022-12-18T08:56:10;-4.00;89.50
55634;DHT22;41504;53.162;6.788;2022-12-18T08:58:36;-4.00;89.50
55634;DHT22;41504;53.162;6.788;2022-12-18T09:01:07;-4.00;89.50
55634;DHT22;41504;53.162;6.788;2022-12-18T09:03:37;-3.90;89.50
55634;DHT22;41504;53.162;6.788;2022-12-18T09:06:03;-3.90;89.30
55634;DHT22;41504;53.162;6.788;2022-12-18T09:08:32;-3.90;89.30
55634;DHT22;41504;53.162;6.788;2022-12-18T09:11:00;-3.90;89.20
55634;DHT22;41504;53.162;6.788;2022-12-18T09:13:25;-4.90;89.70
55634;DHT22;41504;53.162;6.788;2022-12-18T09:15:53;-2.50;90.10
55634;DHT22;41504;53.162;6.788;2022-12-18T09:18:21;-3.00;89.70
55634;DHT22;41504;53.162;6.788;2022-12-18T09:20:47;-2.50;89.90
55634;DHT22;41504;53.162;6.788;2022-12-18T09:23:14;-2.70;89.60
55634;DHT22;41504;53.162;6.788;2022-12-18T09:25:40;-3.60;89.50
55634;DHT22;41504;53.162;6.788;2022-12-18T09:28:14;-3.60;89.60
55634;DHT22;41504;53.162;6.788;2022-12-18T09:30:42;-3.40;89.00
55634;DHT22;41504;53.162;6.788;2022-12-18T09:33:09;-3.50;89.00
55634;DHT22;41504;53.162;6.788;2022-12-18T09:35:41;-3.40;88.90
55634;DHT22;41504;53.162;6.788;2022-12-18T09:38:11;-3.40;88.90
55634;DHT22;41504;53.162;6.788;2022-12-18T09:40:43;-3.40;88.90
55634;DHT22;41504;53.162;6.788;2022-12-18T09:43:26;-3.30;88.80
55634;DHT22;41504;53.162;6.788;2022-12-18T09:45:58;-3.20;88.70
55634;DHT22;41504;53.162;6.788;2022-12-18T09:48:40;-3.20;88.50
55634;DHT22;41504;53.162;6.788;2022-12-18T09:51:20;-3.10;88.50
55634;DHT22;41504;53.162;6.788;2022-12-18T09:53:53;-3.10;88.20
55634;DHT22;41504;53.162;6.788;2022-12-18T09:56:24;-3.00;88.00
55634;DHT22;41504;53.162;6.788;2022-12-18T09:58:58;-3.00;88.20
55634;DHT22;41504;53.162;6.788;2022-12-18T10:01:24;-3.00;88.50
55634;DHT22;41504;53.162;6.788;2022-12-18T10:03:50;-2.30;89.20
55634;DHT22;41504;53.162;6.788;2022-12-18T10:06:32;-3.00;88.10
55634;DHT22;41504;53.162;6.788;2022-12-18T10:09:44;-2.90;88.20
55634;DHT22;41504;53.162;6.788;2022-12-18T10:12:32;-2.90;88.20
55634;DHT22;41504;53.162;6.788;2022-12-18T10:17:54;-2.90;88.40
55634;DHT22;41504;53.162;6.788;2022-12-18T10:20:36;-2.90;88.40
55634;DHT22;41504;53.162;6.788;2022-12-18T10:23:37;-2.80;88.40
55634;DHT22;41504;53.162;6.788;2022-12-18T10:26:06;-2.70;88.40
55634;DHT22;41504;53.162;6.788;2022-12-18T10:28:39;-2.70;88.20
55634;DHT22;41504;53.162;6.788;2022-12-18T10:31:07;-2.60;88.10
55634;DHT22;41504;53.162;6.788;2022-12-18T10:33:33;-2.50;88.10
55634;DHT22;41504;53.162;6.788;2022-12-18T10:36:00;-2.40;88.00
55634;DHT22;41504;53.162;6.788;2022-12-18T10:38:32;-2.40;88.00
55634;DHT22;41504;53.162;6.788;2022-12-18T10:44:24;-2.30;87.90
55634;DHT22;41504;53.162;6.788;2022-12-18T10:47:03;-1.60;88.20
55634;DHT22;41504;53.162;6.788;2022-12-18T10:49:32;-2.10;87.80
55634;DHT22;41504;53.162;6.788;2022-12-18T10:52:17;-1.20;88.30
55634;DHT22;41504;53.162;6.788;2022-12-18T10:54:53;-2.20;87.50
55634;DHT22;41504;53.162;6.788;2022-12-18T10:59:56;-2.10;87.70
55634;DHT22;41504;53.162;6.788;2022-12-18T11:02:34;-1.80;87.80
55634;DHT22;41504;53.162;6.788;2022-12-18T11:05:24;-2.00;87.60
55634;DHT22;41504;53.162;6.788;2022-12-18T11:07:51;-2.00;87.50
55634;DHT22;41504;53.162;6.788;2022-12-18T11:10:21;-1.90;87.40
55634;DHT22;41504;53.162;6.788;2022-12-18T11:12:48;-1.90;87.20
55634;DHT22;41504;53.162;6.788;2022-12-18T11:15:21;-1.90;87.00
55634;DHT22;41504;53.162;6.788;2022-12-18T11:17:50;-1.80;86.90
55634;DHT22;41504;53.162;6.788;2022-12-18T11:20:38;-1.80;86.70
55634;DHT22;41504;53.162;6.788;2022-12-18T11:23:10;-1.10;86.90
55634;DHT22;41504;53.162;6.788;2022-12-18T11:25:37;-1.70;86.70
55634;DHT22;41504;53.162;6.788;2022-12-18T11:28:27;-1.70;86.50
55634;DHT22;41504;53.162;6.788;2022-12-18T11:31:17;-1.60;86.60
55634;DHT22;41504;53.162;6.788;2022-12-18T11:36:42;-1.60;86.50
55634;DHT22;41504;53.162;6.788;2022-12-18T11:39:35;-0.80;86.80
55634;DHT22;41504;53.162;6.788;2022-12-18T11:44:46;-1.50;86.20
55634;DHT22;41504;53.162;6.788;2022-12-18T11:47:41;-1.40;85.90
55634;DHT22;41504;53.162;6.788;2022-12-18T11:53:03;-1.30;86.10
55634;DHT22;41504;53.162;6.788;2022-12-18T12:06:51;-1.20;85.80
55634;DHT22;41504;53.162;6.788;2022-12-18T12:12:34;-1.10;85.70
55634;DHT22;41504;53.162;6.788;2022-12-18T12:15:46;-1.10;85.80
55634;DHT22;41504;53.162;6.788;2022-12-18T12:18:36;-1.10;85.90
55634;DHT22;41504;53.162;6.788;2022-12-18T12:21:55;-1.10;85.80
55634;DHT22;41504;53.162;6.788;2022-12-18T12:27:04;-1.10;85.80
55634;DHT22;41504;53.162;6.788;2022-12-18T12:37:34;-1.00;86.00
55634;DHT22;41504;53.162;6.788;2022-12-18T12:40:12;-0.90;85.90
55634;DHT22;41504;53.162;6.788;2022-12-18T12:42:43;-0.60;86.10
55634;DHT22;41504;53.162;6.788;2022-12-18T12:48:34;-0.90;85.80
55634;DHT22;41504;53.162;6.788;2022-12-18T12:51:17;-0.80;85.90
55634;DHT22;41504;53.162;6.788;2022-12-18T12:53:45;-0.80;85.40
55634;DHT22;41504;53.162;6.788;2022-12-18T12:56:17;-0.80;85.70
55634;DHT22;41504;53.162;6.788;2022-12-18T13:07:37;-0.70;85.40
55634;DHT22;41504;53.162;6.788;2022-12-18T13:13:13;-0.70;85.30
55634;DHT22;41504;53.162;6.788;2022-12-18T13:15:46;-0.60;85.30
55634;DHT22;41504;53.162;6.788;2022-12-18T13:18:22;-0.60;85.20
55634;DHT22;41504;53.162;6.788;2022-12-18T13:23:41;-0.50;85.30
55634;DHT22;41504;53.162;6.788;2022-12-18T13:34:22;-0.50;84.90
55634;DHT22;41504;53.162;6.788;2022-12-18T13:36:48;-0.50;84.90
55634;DHT22;41504;53.162;6.788;2022-12-18T13:41:45;-0.50;84.60
55634;DHT22;41504;53.162;6.788;2022-12-18T13:46:55;-0.40;83.80
55634;DHT22;41504;53.162;6.788;2022-12-18T13:49:37;-0.50;84.00
55634;DHT22;41504;53.162;6.788;2022-12-18T13:54:49;-0.40;83.60
55634;DHT22;41504;53.162;6.788;2022-12-18T13:59:56;-0.40;83.40
55634;DHT22;41504;53.162;6.788;2022-12-18T14:02:25;-0.90;83.00
55634;DHT22;41504;53.162;6.788;2022-12-18T14:04:52;-0.40;83.40
55634;DHT22;41504;53.162;6.788;2022-12-18T14:07:21;-0.40;83.50
55634;DHT22;41504;53.162;6.788;2022-12-18T14:09:50;-0.40;83.70
55634;DHT22;41504;53.162;6.788;2022-12-18T14:12:30;-0.40;83.70
55634;DHT22;41504;53.162;6.788;2022-12-18T14:17:47;-0.40;84.10
55634;DHT22;41504;53.162;6.788;2022-12-18T14:20:14;-0.40;84.10
55634;DHT22;41504;53.162;6.788;2022-12-18T14:22:44;-0.40;84.30
55634;DHT22;41504;53.162;6.788;2022-12-18T14:25:15;-0.40;84.50
55634;DHT22;41504;53.162;6.788;2022-12-18T14:27:48;-0.50;84.40
55634;DHT22;41504;53.162;6.788;2022-12-18T14:30:40;-0.50;84.60
55634;DHT22;41504;53.162;6.788;2022-12-18T14:33:24;-0.50;84.50
55634;DHT22;41504;53.162;6.788;2022-12-18T14:36:02;-0.50;84.70
55634;DHT22;41504;53.162;6.788;2022-12-18T14:38:29;-0.60;84.80
55634;DHT22;41504;53.162;6.788;2022-12-18T14:40:59;-0.60;84.90
55634;DHT22;41504;53.162;6.788;2022-12-18T14:43:32;-0.60;84.90
55634;DHT22;41504;53.162;6.788;2022-12-18T14:45:58;-0.40;85.00
55634;DHT22;41504;53.162;6.788;2022-12-18T14:48:40;-0.30;85.10
55634;DHT22;41504;53.162;6.788;2022-12-18T14:51:16;-0.60;84.90
55634;DHT22;41504;53.162;6.788;2022-12-18T14:53:45;-0.70;84.80
55634;DHT22;41504;53.162;6.788;2022-12-18T14:56:18;-0.70;84.90
55634;DHT22;41504;53.162;6.788;2022-12-18T14:58:54;-0.70;84.80
55634;DHT22;41504;53.162;6.788;2022-12-18T15:01:27;-0.70;84.80
55634;DHT22;41504;53.162;6.788;2022-12-18T15:03:54;-0.70;85.00
55634;DHT22;41504;53.162;6.788;2022-12-18T15:06:27;-0.70;84.80
55634;DHT22;41504;53.162;6.788;2022-12-18T15:08:54;-0.70;84.90
55634;DHT22;41504;53.162;6.788;2022-12-18T15:14:30;-0.70;84.90
55634;DHT22;41504;53.162;6.788;2022-12-18T15:16:58;-0.70;84.90
55634;DHT22;41504;53.162;6.788;2022-12-18T15:19:40;-0.70;85.00
55634;DHT22;41504;53.162;6.788;2022-12-18T15:24:47;-0.70;85.10
55634;DHT22;41504;53.162;6.788;2022-12-18T15:27:25;-0.80;85.00
55634;DHT22;41504;53.162;6.788;2022-12-18T15:32:39;-0.80;85.00
55634;DHT22;41504;53.162;6.788;2022-12-18T15:37:39;-0.80;85.10
55634;DHT22;41504;53.162;6.788;2022-12-18T15:40:12;-0.80;85.10
55634;DHT22;41504;53.162;6.788;2022-12-18T15:42:38;-0.80;85.00
55634;DHT22;41504;53.162;6.788;2022-12-18T15:45:23;-0.80;84.30
55634;DHT22;41504;53.162;6.788;2022-12-18T15:47:48;-0.60;84.90
55634;DHT22;41504;53.162;6.788;2022-12-18T15:50:14;-0.80;84.80
55634;DHT22;41504;53.162;6.788;2022-12-18T15:52:45;-0.90;84.90
55634;DHT22;41504;53.162;6.788;2022-12-18T15:55:19;-0.90;84.80
55634;DHT22;41504;53.162;6.788;2022-12-18T15:58:04;-0.80;85.00
55634;DHT22;41504;53.162;6.788;2022-12-18T16:00:32;-0.70;85.00
55634;DHT22;41504;53.162;6.788;2022-12-18T16:02:59;-0.80;84.80
55634;DHT22;41504;53.162;6.788;2022-12-18T16:05:26;-0.80;84.90
55634;DHT22;41504;53.162;6.788;2022-12-18T16:07:52;-0.80;84.70
55634;DHT22;41504;53.162;6.788;2022-12-18T16:10:19;-0.80;84.50
55634;DHT22;41504;53.162;6.788;2022-12-18T16:12:47;-0.80;84.10
55634;DHT22;41504;53.162;6.788;2022-12-18T16:15:14;-0.80;84.10
55634;DHT22;41504;53.162;6.788;2022-12-18T16:17:45;-0.80;84.00
55634;DHT22;41504;53.162;6.788;2022-12-18T16:20:16;-0.80;84.00
55634;DHT22;41504;53.162;6.788;2022-12-18T16:22:44;-0.80;84.20
55634;DHT22;41504;53.162;6.788;2022-12-18T16:25:25;-0.80;84.00
55634;DHT22;41504;53.162;6.788;2022-12-18T16:27:53;-0.80;84.00
55634;DHT22;41504;53.162;6.788;2022-12-18T16:30:25;-0.80;83.90
55634;DHT22;41504;53.162;6.788;2022-12-18T16:32:54;-0.80;83.80
55634;DHT22;41504;53.162;6.788;2022-12-18T16:35:20;-0.80;83.90
55634;DHT22;41504;53.162;6.788;2022-12-18T16:37:46;-0.80;83.70
55634;DHT22;41504;53.162;6.788;2022-12-18T16:40:14;-0.80;83.70
55634;DHT22;41504;53.162;6.788;2022-12-18T16:42:41;-0.60;83.30
55634;DHT22;41504;53.162;6.788;2022-12-18T16:45:10;-0.80;83.00
55634;DHT22;41504;53.162;6.788;2022-12-18T16:47:36;-0.80;83.30
55634;DHT22;41504;53.162;6.788;2022-12-18T16:50:03;-0.80;83.00
55634;DHT22;41504;53.162;6.788;2022-12-18T16:52:29;-0.80;83.00
55634;DHT22;41504;53.162;6.788;2022-12-18T16:54:55;-0.80;82.80
55634;DHT22;41504;53.162;6.788;2022-12-18T16:57:21;-0.80;82.30
55634;DHT22;41504;53.162;6.788;2022-12-18T16:59:47;-0.90;82.80
55634;DHT22;41504;53.162;6.788;2022-12-18T17:02:15;-0.80;83.20
55634;DHT22;41504;53.162;6.788;2022-12-18T17:04:42;-0.80;82.90
55634;DHT22;41504;53.162;6.788;2022-12-18T17:07:08;-0.80;82.80
55634;DHT22;41504;53.162;6.788;2022-12-18T17:09:34;-0.80;83.00
55634;DHT22;41504;53.162;6.788;2022-12-18T17:12:04;-0.80;82.90
55634;DHT22;41504;53.162;6.788;2022-12-18T17:14:30;-0.80;83.00
55634;DHT22;41504;53.162;6.788;2022-12-18T17:16:56;0.10;83.40
55634;DHT22;41504;53.162;6.788;2022-12-18T17:19:23;-0.60;83.00
55634;DHT22;41504;53.162;6.788;2022-12-18T17:21:50;-0.70;83.20
55634;DHT22;41504;53.162;6.788;2022-12-18T17:24:16;-0.70;82.70
55634;DHT22;41504;53.162;6.788;2022-12-18T17:26:42;-0.70;82.90
55634;DHT22;41504;53.162;6.788;2022-12-18T17:29:11;-0.70;83.00
55634;DHT22;41504;53.162;6.788;2022-12-18T17:31:38;-0.70;83.00
55634;DHT22;41504;53.162;6.788;2022-12-18T17:34:04;-0.60;82.80
55634;DHT22;41504;53.162;6.788;2022-12-18T17:36:30;-0.60;82.80
55634;DHT22;41504;53.162;6.788;2022-12-18T17:38:58;-0.60;82.90
55634;DHT22;41504;53.162;6.788;2022-12-18T17:41:25;-0.60;83.20
55634;DHT22;41504;53.162;6.788;2022-12-18T17:43:53;-0.60;83.20
55634;DHT22;41504;53.162;6.788;2022-12-18T17:46:19;-0.60;82.90
55634;DHT22;41504;53.162;6.788;2022-12-18T17:48:46;-0.60;83.30